createdAt,value
2019-03-28T00:00:12.090Z,6.10
2019-03-28T00:02:41.358Z,5.80
2019-03-28T00:05:10.692Z,5.00
2019-03-28T00:07:40.310Z,5.35
2019-03-28T00:10:10.099Z,5.05
2019-03-28T00:12:40.099Z,5.75
2019-03-28T00:15:09.495Z,4.97
2019-03-28T00:17:38.764Z,5.50
2019-03-28T00:20:08.445Z,5.78
2019-03-28T00:22:55.875Z,5.55
2019-03-28T00:25:26.774Z,5.05
2019-03-28T00:27:56.312Z,5.10
2019-03-28T00:30:25.578Z,6.45
2019-03-28T00:32:54.850Z,6.15
2019-03-28T00:35:24.105Z,5.60
2019-03-28T00:37:53.701Z,5.45
2019-03-28T00:40:22.962Z,5.37
2019-03-28T00:42:52.230Z,5.80
2019-03-28T00:45:21.521Z,7.40
2019-03-28T00:47:50.781Z,6.00
2019-03-28T00:50:20.046Z,5.35
2019-03-28T00:52:49.306Z,5.25
2019-03-28T00:55:18.933Z,5.85
2019-03-28T00:57:48.193Z,5.40
2019-03-28T01:00:18.307Z,6.60
2019-03-28T01:02:47.566Z,7.05
2019-03-28T01:05:17.214Z,6.17
2019-03-28T01:07:47.221Z,6.55
2019-03-28T01:10:16.501Z,7.45
2019-03-28T01:12:45.769Z,6.83
2019-03-28T01:15:15.106Z,7.78
2019-03-28T01:17:44.381Z,7.92
2019-03-28T01:20:13.852Z,7.65
2019-03-28T01:22:43.110Z,7.15
2019-03-28T01:25:12.532Z,7.72
2019-03-28T01:27:41.795Z,6.53
2019-03-28T01:30:11.808Z,7.62
2019-03-28T01:32:41.392Z,7.72
2019-03-28T01:35:10.662Z,7.28
2019-03-28T01:37:39.924Z,7.53
2019-03-28T01:40:09.270Z,8.10
2019-03-28T01:42:38.525Z,7.47
2019-03-28T01:45:08.338Z,7.45
2019-03-28T01:47:37.774Z,8.15
2019-03-28T01:50:07.601Z,7.45
2019-03-28T01:52:36.852Z,7.10
2019-03-28T01:55:08.424Z,7.90
2019-03-28T01:57:37.687Z,8.10
2019-03-28T02:00:10.350Z,6.60
2019-03-28T02:02:39.863Z,7.67
2019-03-28T02:05:09.377Z,7.35
2019-03-28T02:07:38.633Z,8.65
2019-03-28T02:10:09.045Z,7.50
2019-03-28T02:12:38.306Z,7.37
2019-03-28T02:15:10.910Z,7.97
2019-03-28T02:17:40.172Z,7.65
2019-03-28T02:20:10.652Z,7.80
2019-03-28T02:22:39.919Z,8.80
2019-03-28T02:25:10.369Z,7.15
2019-03-28T02:27:39.629Z,8.18
2019-03-28T02:30:10.446Z,7.08
2019-03-28T02:32:39.723Z,7.30
2019-03-28T02:35:09.627Z,7.40
2019-03-28T02:37:38.883Z,8.25
2019-03-28T02:40:08.406Z,7.65
2019-03-28T02:42:37.692Z,7.22
2019-03-28T02:45:08.385Z,7.40
2019-03-28T02:47:37.631Z,6.92
2019-03-28T02:50:07.610Z,7.50
2019-03-28T02:52:37.142Z,9.20
2019-03-28T02:55:08.168Z,6.75
2019-03-28T02:57:41.816Z,7.20
2019-03-28T03:00:10.687Z,6.65
2019-03-28T03:02:39.956Z,7.60
2019-03-28T03:05:09.295Z,6.20
2019-03-28T03:07:38.552Z,7.05
2019-03-28T03:10:08.721Z,7.03
2019-03-28T03:12:37.993Z,7.72
2019-03-28T03:15:10.520Z,7.53
2019-03-28T03:17:40.118Z,7.53
2019-03-28T03:20:10.266Z,7.22
2019-03-28T03:22:39.515Z,7.25
2019-03-28T03:25:09.395Z,7.33
2019-03-28T03:27:38.738Z,6.75
2019-03-28T03:30:09.265Z,6.90
2019-03-28T03:32:38.690Z,7.10
2019-03-28T03:35:08.057Z,6.25
2019-03-28T03:37:37.417Z,7.55
2019-03-28T03:40:09.193Z,7.33
2019-03-28T03:42:38.465Z,7.75
2019-03-28T03:45:09.800Z,8.23
2019-03-28T03:47:39.153Z,7.62
2019-03-28T03:50:09.246Z,6.95
2019-03-28T03:52:38.519Z,6.78
2019-03-28T03:55:08.622Z,7.58
2019-03-28T03:57:37.892Z,7.85
2019-03-28T04:00:09.446Z,8.08
2019-03-28T04:02:39.057Z,7.85
2019-03-28T04:05:08.391Z,8.18
2019-03-28T04:07:37.651Z,6.15
2019-03-28T04:10:07.450Z,8.13
2019-03-28T04:12:36.742Z,6.97
2019-03-28T04:15:06.824Z,7.53
2019-03-28T04:17:36.403Z,7.72
2019-03-28T04:20:07.633Z,7.85
2019-03-28T04:22:37.447Z,6.70
2019-03-28T04:25:06.808Z,8.35
2019-03-28T04:27:36.095Z,7.37
2019-03-28T04:30:08.968Z,7.28
2019-03-28T04:32:38.238Z,8.65
2019-03-28T04:35:07.669Z,7.97
2019-03-28T04:37:36.945Z,8.60
2019-03-28T04:40:08.779Z,7.92
2019-03-28T04:42:38.252Z,8.18
2019-03-28T04:45:07.951Z,8.15
2019-03-28T04:47:37.185Z,7.30
2019-03-28T04:50:11.169Z,7.80
2019-03-28T04:52:40.443Z,8.15
2019-03-28T04:55:09.952Z,8.15
2019-03-28T04:57:41.100Z,6.10
2019-03-28T05:00:11.859Z,7.90
2019-03-28T05:02:41.130Z,7.75
2019-03-28T05:05:10.815Z,8.75
2019-03-28T05:07:40.077Z,8.00
2019-03-28T05:10:10.858Z,8.70
2019-03-28T05:12:40.194Z,7.87
2019-03-28T05:15:10.465Z,8.45
2019-03-28T05:17:40.417Z,7.45
2019-03-28T05:20:13.320Z,7.62
2019-03-28T05:22:41.939Z,7.97
2019-03-28T05:25:11.439Z,9.03
2019-03-28T05:27:40.711Z,7.53
2019-03-28T05:30:10.684Z,9.20
2019-03-28T05:32:39.948Z,7.47
2019-03-28T05:35:09.737Z,8.60
2019-03-28T05:37:39.495Z,8.85
2019-03-28T05:40:09.629Z,9.50
2019-03-28T05:42:38.908Z,9.00
2019-03-28T05:45:08.443Z,8.73
2019-03-28T05:47:37.731Z,9.45
2019-03-28T05:50:07.738Z,9.40
2019-03-28T05:52:37.350Z,9.43
2019-03-28T05:55:07.673Z,8.00
2019-03-28T05:57:36.934Z,8.73
2019-03-28T06:00:07.048Z,8.93
2019-03-28T06:02:36.313Z,8.13
2019-03-28T06:05:07.327Z,8.98
2019-03-28T06:07:36.657Z,8.88
2019-03-28T06:10:08.095Z,9.90
2019-03-28T06:12:37.690Z,9.15
2019-03-28T06:15:08.582Z,9.30
2019-03-28T06:17:38.139Z,9.23
2019-03-28T06:20:09.665Z,7.92
2019-03-28T06:22:39.573Z,8.48
2019-03-28T06:25:10.316Z,8.98
2019-03-28T06:27:39.577Z,8.60
2019-03-28T06:30:09.867Z,8.50
2019-03-28T06:32:43.176Z,9.55
2019-03-28T06:35:10.189Z,8.65
2019-03-28T06:37:39.462Z,7.83
2019-03-28T06:40:09.337Z,8.40
2019-03-28T06:42:38.600Z,9.48
2019-03-28T06:45:09.172Z,9.48
2019-03-28T06:47:38.435Z,8.35
2019-03-28T06:50:09.260Z,9.15
2019-03-28T06:52:38.782Z,8.90
2019-03-28T06:55:08.269Z,9.10
2019-03-28T06:57:37.533Z,8.70
2019-03-28T07:00:11.741Z,9.95
2019-03-28T07:02:41.012Z,9.65
2019-03-28T07:05:11.598Z,8.35
2019-03-28T07:07:40.858Z,9.48
2019-03-28T07:10:10.937Z,10.55
2019-03-28T07:12:40.208Z,9.18
2019-03-28T07:15:09.820Z,9.45
2019-03-28T07:17:39.111Z,10.20
2019-03-28T07:20:09.744Z,9.23
2019-03-28T07:22:39.162Z,9.63
2019-03-28T07:25:08.509Z,10.03
2019-03-28T07:27:37.765Z,9.83
2019-03-28T07:30:10.826Z,8.93
2019-03-28T07:32:43.193Z,8.73
2019-03-28T07:35:11.383Z,9.73
2019-03-28T07:37:40.649Z,9.13
2019-03-28T07:40:10.159Z,10.80
2019-03-28T07:42:39.438Z,9.15
2019-03-28T07:45:09.424Z,9.60
2019-03-28T07:47:38.687Z,9.50
2019-03-28T07:50:09.376Z,10.45
2019-03-28T07:52:38.635Z,10.53
2019-03-28T07:55:09.426Z,9.65
2019-03-28T07:57:38.685Z,8.98
2019-03-28T08:00:11.766Z,9.53
2019-03-28T08:02:41.034Z,8.70
2019-03-28T08:05:11.921Z,7.60
2019-03-28T08:07:45.233Z,9.00
2019-03-28T08:10:12.476Z,10.28
2019-03-28T08:12:41.748Z,8.85
2019-03-28T08:15:12.725Z,7.70
2019-03-28T08:17:42.056Z,8.93
2019-03-28T08:20:12.647Z,9.45
2019-03-28T08:22:41.978Z,9.05
2019-03-28T08:25:12.363Z,9.15
2019-03-28T08:27:42.837Z,8.83
2019-03-28T08:30:18.791Z,8.43
2019-03-28T08:32:43.895Z,7.75
2019-03-28T08:35:13.314Z,8.58
2019-03-28T08:37:43.353Z,8.55
2019-03-28T08:40:17.410Z,9.55
2019-03-28T08:42:47.488Z,8.58
2019-03-28T08:45:16.879Z,9.25
2019-03-28T08:47:46.147Z,9.35
2019-03-28T08:50:15.739Z,9.00
2019-03-28T08:52:45.249Z,7.03
2019-03-28T08:55:14.850Z,9.15
2019-03-28T08:57:44.120Z,9.25
2019-03-28T09:00:16.635Z,9.65
2019-03-28T09:02:44.761Z,8.48
2019-03-28T09:05:14.114Z,7.22
2019-03-28T09:07:43.385Z,7.90
2019-03-28T09:10:13.177Z,8.60
2019-03-28T09:12:54.564Z,8.13
2019-03-28T09:15:24.247Z,7.90
2019-03-28T09:17:53.503Z,7.87
2019-03-28T09:20:22.844Z,6.43
2019-03-28T09:22:52.126Z,6.97
2019-03-28T09:25:21.408Z,7.23
2019-03-28T09:27:51.752Z,7.53
2019-03-28T09:30:48.650Z,7.37
2019-03-28T09:33:13.303Z,6.83
2019-03-28T09:35:42.753Z,6.13
2019-03-28T09:38:12.142Z,6.03
2019-03-28T09:40:41.419Z,6.10
2019-03-28T09:43:10.699Z,6.17
2019-03-28T09:45:40.230Z,5.97
2019-03-28T09:48:11.581Z,5.40
2019-03-28T09:50:40.542Z,5.33
2019-03-28T09:53:09.852Z,5.40
2019-03-28T09:55:39.125Z,6.00
2019-03-28T09:58:08.481Z,5.27
2019-03-28T10:00:37.825Z,5.60
2019-03-28T10:03:07.433Z,4.70
2019-03-28T10:05:38.085Z,6.00
2019-03-28T10:08:07.814Z,5.90
2019-03-28T10:10:37.082Z,6.33
2019-03-28T10:13:06.368Z,6.27
2019-03-28T10:15:37.033Z,5.87
2019-03-28T10:18:06.514Z,5.93
2019-03-28T10:20:35.794Z,6.40
2019-03-28T10:23:05.144Z,6.73
2019-03-28T10:25:34.419Z,6.53
2019-03-28T10:28:03.751Z,7.23
2019-03-28T10:30:42.118Z,7.53
2019-03-28T10:33:11.591Z,6.23
2019-03-28T10:35:40.920Z,7.97
2019-03-28T10:38:10.276Z,6.70
2019-03-28T10:40:39.582Z,7.10
2019-03-28T10:43:08.894Z,6.00
2019-03-28T10:45:38.209Z,5.83
2019-03-28T10:48:07.877Z,5.97
2019-03-28T10:50:45.044Z,6.60
2019-03-28T10:53:08.531Z,6.00
2019-03-28T10:55:37.835Z,5.83
2019-03-28T10:58:18.355Z,6.50
2019-03-28T11:00:38.731Z,5.73
2019-03-28T11:03:08.392Z,6.37
2019-03-28T11:05:37.703Z,7.20
2019-03-28T11:08:07.095Z,5.90
2019-03-28T11:10:36.404Z,5.77
2019-03-28T11:13:09.162Z,5.63
2019-03-28T11:15:36.754Z,5.67
2019-03-28T11:18:06.075Z,5.13
2019-03-28T11:20:38.180Z,4.80
2019-03-28T11:23:07.330Z,5.50
2019-03-28T11:25:36.873Z,5.40
2019-03-28T11:28:06.203Z,4.87
2019-03-28T11:30:35.508Z,4.73
2019-03-28T11:33:06.548Z,5.17
2019-03-28T11:35:36.003Z,5.50
2019-03-28T11:38:05.313Z,4.60
2019-03-28T11:40:34.620Z,4.97
2019-03-28T11:43:03.952Z,5.70
2019-03-28T11:45:33.567Z,5.80
2019-03-28T11:48:02.884Z,3.33
2019-03-28T11:50:32.189Z,2.97
2019-03-28T11:53:01.503Z,4.17
2019-03-28T11:55:30.817Z,3.30
2019-03-28T11:58:00.131Z,3.10
2019-03-28T12:00:29.826Z,3.00
2019-03-28T12:02:59.159Z,3.23
2019-03-28T12:05:28.463Z,3.10
2019-03-28T12:07:57.779Z,3.50
2019-03-28T12:10:27.093Z,3.07
2019-03-28T12:12:56.412Z,3.20
2019-03-28T12:15:25.800Z,2.93
2019-03-28T12:17:55.386Z,3.80
2019-03-28T12:20:24.695Z,3.30
2019-03-28T12:22:56.047Z,1.97
2019-03-28T12:25:25.045Z,2.97
2019-03-28T12:27:54.365Z,2.70
2019-03-28T12:30:23.939Z,3.27
2019-03-28T12:32:53.541Z,3.07
2019-03-28T12:35:23.150Z,3.47
2019-03-28T12:37:52.468Z,3.40
2019-03-28T12:40:21.770Z,3.90
2019-03-28T12:42:51.087Z,4.50
2019-03-28T12:45:20.386Z,4.00
2019-03-28T12:47:50.066Z,4.97
2019-03-28T12:50:19.370Z,3.87
2019-03-28T12:52:48.983Z,3.00
2019-03-28T12:55:18.278Z,3.53
2019-03-28T12:57:48.564Z,3.10
2019-03-28T13:00:21.521Z,2.40
2019-03-28T13:02:50.834Z,2.67
2019-03-28T13:05:20.781Z,2.77
2019-03-28T13:07:50.099Z,3.83
2019-03-28T13:10:19.480Z,3.03
2019-03-28T13:12:49.058Z,3.67
2019-03-28T13:15:18.369Z,3.30
2019-03-28T13:17:48.020Z,3.90
2019-03-28T13:20:17.395Z,3.70
2019-03-28T13:22:46.713Z,3.40
2019-03-28T13:25:16.028Z,4.50
2019-03-28T13:27:45.633Z,4.70
2019-03-28T13:30:15.487Z,4.47
2019-03-28T13:32:45.157Z,4.50
2019-03-28T13:35:14.558Z,3.93
2019-03-28T13:37:43.845Z,4.10
2019-03-28T13:40:14.398Z,3.20
2019-03-28T13:42:43.703Z,3.87
2019-03-28T13:45:14.495Z,4.17
2019-03-28T13:47:43.982Z,4.10
2019-03-28T13:50:14.611Z,4.40
2019-03-28T13:52:43.920Z,3.30
2019-03-28T13:55:13.666Z,4.40
2019-03-28T13:57:43.491Z,3.93
2019-03-28T14:00:15.287Z,4.40
2019-03-28T14:02:55.621Z,3.60
2019-03-28T14:05:15.991Z,4.30
2019-03-28T14:07:45.299Z,3.00
2019-03-28T14:10:14.755Z,4.63
2019-03-28T14:12:44.067Z,4.50
2019-03-28T14:15:13.455Z,4.63
2019-03-28T14:17:42.759Z,4.63
2019-03-28T14:20:13.485Z,4.40
2019-03-28T14:22:42.790Z,3.67
2019-03-28T14:25:12.179Z,4.23
2019-03-28T14:27:41.499Z,3.90
2019-03-28T14:30:11.667Z,4.37
2019-03-28T14:32:52.654Z,3.20
2019-03-28T14:35:12.874Z,3.93
2019-03-28T14:37:42.183Z,2.70
2019-03-28T14:40:12.713Z,3.17
2019-03-28T14:42:42.009Z,3.07
2019-03-28T14:45:11.768Z,3.37
2019-03-28T14:47:41.240Z,2.53
2019-03-28T14:50:11.578Z,3.87
2019-03-28T14:52:41.192Z,4.33
2019-03-28T14:55:10.647Z,4.30
2019-03-28T14:57:40.891Z,3.67
2019-03-28T15:00:47.023Z,3.43
2019-03-28T15:03:25.795Z,3.00
2019-03-28T15:05:47.668Z,2.93
2019-03-28T15:08:17.982Z,2.20
2019-03-28T15:10:47.916Z,3.13
2019-03-28T15:13:17.204Z,3.00
2019-03-28T15:15:46.517Z,2.43
2019-03-28T15:18:15.822Z,3.83
2019-03-28T15:20:45.487Z,3.63
2019-03-28T15:23:14.794Z,4.13
2019-03-28T15:25:44.113Z,3.80
2019-03-28T15:28:13.414Z,3.30
2019-03-28T15:30:42.730Z,3.60
2019-03-28T15:33:12.040Z,4.03
2019-03-28T15:35:41.359Z,3.50
2019-03-28T15:38:10.664Z,3.23
2019-03-28T15:40:39.980Z,3.80
2019-03-28T15:43:09.284Z,4.13
2019-03-28T15:45:38.669Z,2.70
2019-03-28T15:48:07.971Z,3.77
2019-03-28T15:50:37.283Z,3.07
2019-03-28T15:53:06.659Z,3.00
2019-03-28T15:55:35.976Z,2.73
2019-03-28T15:58:05.354Z,2.50
2019-03-28T16:00:34.666Z,3.03
2019-03-28T16:03:04.042Z,3.30
2019-03-28T16:05:33.361Z,2.77
2019-03-28T16:08:02.734Z,2.33
2019-03-28T16:10:32.071Z,2.27
2019-03-28T16:13:01.379Z,2.83
2019-03-28T16:15:30.789Z,1.97
2019-03-28T16:18:00.088Z,1.73
2019-03-28T16:20:29.402Z,2.00
2019-03-28T16:22:58.712Z,2.10
2019-03-28T16:25:28.323Z,1.50
2019-03-28T16:27:57.725Z,2.30
2019-03-28T16:30:36.525Z,1.73
2019-03-28T16:33:06.741Z,2.23
2019-03-28T16:35:36.062Z,1.83
2019-03-28T16:38:05.442Z,2.00
2019-03-28T16:40:35.075Z,1.80
2019-03-28T16:43:04.689Z,1.80
2019-03-28T16:45:33.992Z,1.70
2019-03-28T16:48:03.384Z,2.40
2019-03-28T16:50:32.756Z,1.70
2019-03-28T16:53:02.071Z,1.80
2019-03-28T16:55:31.375Z,1.80
2019-03-28T16:58:00.691Z,1.90
2019-03-28T17:00:38.088Z,1.77
2019-03-28T17:03:07.735Z,2.73
2019-03-28T17:05:37.506Z,2.43
2019-03-28T17:08:07.315Z,2.93
2019-03-28T17:10:48.780Z,3.90
2019-03-28T17:13:18.168Z,3.50
2019-03-28T17:15:47.606Z,3.47
2019-03-28T17:18:18.692Z,4.13
2019-03-28T17:20:47.945Z,4.00
2019-03-28T17:23:17.263Z,4.93
2019-03-28T17:25:46.646Z,4.20
2019-03-28T17:28:16.023Z,4.40
2019-03-28T17:30:45.593Z,4.13
2019-03-28T17:33:17.624Z,3.70
2019-03-28T17:35:46.312Z,4.30
2019-03-28T17:38:17.057Z,5.57
2019-03-28T17:40:46.760Z,4.40
2019-03-28T17:43:16.209Z,3.50
2019-03-28T17:45:45.869Z,4.20
2019-03-28T17:48:15.580Z,4.00
2019-03-28T17:50:44.893Z,5.00
2019-03-28T17:53:14.900Z,3.97
2019-03-28T17:55:44.342Z,3.60
2019-03-28T17:58:13.660Z,3.53
2019-03-28T18:00:44.610Z,4.23
2019-03-28T18:03:14.059Z,3.70
2019-03-28T18:05:57.074Z,3.70
2019-03-28T18:08:14.645Z,3.70
2019-03-28T18:10:44.616Z,3.23
2019-03-28T18:13:13.934Z,3.03
2019-03-28T18:15:43.285Z,3.60
2019-03-28T18:18:13.040Z,3.97
2019-03-28T18:20:42.395Z,3.17
2019-03-28T18:23:11.711Z,3.73
2019-03-28T18:25:41.024Z,4.47
2019-03-28T18:28:10.632Z,4.10
2019-03-28T18:30:39.967Z,3.40
2019-03-28T18:33:09.260Z,3.60
2019-03-28T18:35:38.570Z,3.67
2019-03-28T18:38:07.900Z,3.40
2019-03-28T18:40:37.206Z,3.50
2019-03-28T18:43:06.529Z,2.77
2019-03-28T18:45:35.839Z,2.87
2019-03-28T18:48:05.165Z,3.43
2019-03-28T18:50:34.743Z,3.00
2019-03-28T18:53:04.055Z,3.60
2019-03-28T18:55:33.361Z,3.50
2019-03-28T18:58:02.960Z,2.73
2019-03-28T19:00:32.265Z,3.37
2019-03-28T19:03:01.590Z,3.00
2019-03-28T19:05:30.901Z,3.23
2019-03-28T19:08:00.225Z,4.97
2019-03-28T19:10:29.535Z,3.60
2019-03-28T19:12:59.803Z,3.20
2019-03-28T19:15:29.111Z,4.00
2019-03-28T19:17:59.708Z,4.10
2019-03-28T19:20:29.024Z,4.00
2019-03-28T19:22:58.569Z,3.07
2019-03-28T19:25:28.355Z,3.60
2019-03-28T19:27:57.666Z,3.97
2019-03-28T19:30:34.434Z,3.37
2019-03-28T19:33:06.675Z,3.70
2019-03-28T19:35:36.064Z,3.40
2019-03-28T19:38:08.854Z,4.13
2019-03-28T19:40:36.489Z,3.97
2019-03-28T19:43:19.256Z,4.20
2019-03-28T19:45:37.837Z,3.20
2019-03-28T19:48:08.530Z,3.30
2019-03-28T19:50:38.130Z,3.70
2019-03-28T19:53:07.593Z,4.00
2019-03-28T19:55:39.921Z,3.80
2019-03-28T19:58:09.202Z,3.87
2019-03-28T20:00:38.507Z,4.30
2019-03-28T20:03:08.113Z,3.90
2019-03-28T20:05:47.321Z,3.87
2019-03-28T20:08:15.461Z,3.87
2019-03-28T20:10:40.172Z,4.77
2019-03-28T20:13:09.505Z,4.43
2019-03-28T20:15:38.810Z,3.77
2019-03-28T20:18:08.128Z,4.57
2019-03-28T20:20:37.452Z,3.80
2019-03-28T20:23:07.118Z,5.20
2019-03-28T20:25:36.434Z,6.10
2019-03-28T20:28:05.746Z,6.33
2019-03-28T20:30:35.130Z,5.70
2019-03-28T20:33:04.831Z,5.17
2019-03-28T20:35:34.152Z,7.40
2019-03-28T20:38:03.868Z,7.00
2019-03-28T20:40:33.572Z,5.00
2019-03-28T20:43:02.880Z,5.33
2019-03-28T20:45:32.199Z,5.07
2019-03-28T20:48:01.863Z,3.83
2019-03-28T20:50:31.864Z,3.87
2019-03-28T20:53:01.170Z,4.13
2019-03-28T20:55:30.755Z,3.40
2019-03-28T20:58:00.062Z,4.20
2019-03-28T21:00:37.246Z,4.00
2019-03-28T21:03:06.783Z,4.70
2019-03-28T21:05:36.103Z,3.70
2019-03-28T21:08:05.588Z,4.60
2019-03-28T21:10:34.974Z,4.50
2019-03-28T21:13:04.281Z,4.03
2019-03-28T21:15:33.599Z,3.33
2019-03-28T21:18:02.908Z,4.23
2019-03-28T21:20:32.221Z,3.80
2019-03-28T21:23:05.039Z,4.20
2019-03-28T21:25:32.943Z,3.90
2019-03-28T21:28:02.250Z,4.13
2019-03-28T21:30:31.565Z,4.60
2019-03-28T21:33:00.832Z,3.93
2019-03-28T21:35:30.126Z,5.10
2019-03-28T21:37:59.396Z,4.80
2019-03-28T21:40:28.679Z,5.07
2019-03-28T21:42:57.954Z,4.47
2019-03-28T21:45:27.233Z,4.10
2019-03-28T21:47:56.507Z,4.90
2019-03-28T21:50:25.794Z,4.90
2019-03-28T21:52:55.145Z,5.80
2019-03-28T21:55:24.719Z,6.10
2019-03-28T21:57:53.992Z,5.50
2019-03-28T22:00:23.277Z,5.40
2019-03-28T22:02:52.549Z,4.70
2019-03-28T22:05:22.128Z,5.17
2019-03-28T22:07:51.570Z,4.53
2019-03-28T22:10:20.937Z,4.10
2019-03-28T22:12:50.207Z,3.93
2019-03-28T22:15:19.488Z,4.60
2019-03-28T22:17:48.754Z,3.80
2019-03-28T22:20:18.237Z,3.90
2019-03-28T22:22:47.592Z,5.00
2019-03-28T22:25:16.872Z,4.00
2019-03-28T22:27:47.553Z,4.77
2019-03-28T22:30:17.204Z,4.30
2019-03-28T22:32:46.478Z,4.47
2019-03-28T22:35:15.756Z,4.30
2019-03-28T22:37:45.025Z,4.87
2019-03-28T22:40:14.557Z,4.17
2019-03-28T22:42:43.829Z,4.27
2019-03-28T22:45:15.040Z,4.90
2019-03-28T22:47:44.325Z,4.53
2019-03-28T22:50:13.927Z,4.37
2019-03-28T22:52:43.207Z,4.33
2019-03-28T22:55:12.887Z,4.60
2019-03-28T22:57:42.168Z,4.50
2019-03-28T23:00:14.047Z,5.47
2019-03-28T23:02:43.327Z,4.83
2019-03-28T23:05:13.536Z,4.93
2019-03-28T23:07:43.146Z,5.60
2019-03-28T23:10:13.145Z,5.97
2019-03-28T23:12:42.408Z,5.60
2019-03-28T23:15:12.291Z,6.10
2019-03-28T23:17:41.570Z,6.00
2019-03-28T23:20:11.342Z,4.83
2019-03-28T23:22:40.888Z,5.80
2019-03-28T23:25:10.976Z,5.40
2019-03-28T23:27:40.487Z,4.93
2019-03-28T23:30:10.360Z,6.60
2019-03-28T23:32:39.643Z,5.50
2019-03-28T23:35:09.751Z,6.10
2019-03-28T23:37:39.498Z,6.03
2019-03-28T23:40:10.315Z,6.53
2019-03-28T23:42:39.596Z,6.23
2019-03-28T23:45:13.260Z,6.73
2019-03-28T23:47:43.011Z,6.70
2019-03-28T23:50:12.541Z,6.40
2019-03-28T23:52:42.716Z,6.50
2019-03-28T23:55:12.126Z,6.40
2019-03-28T23:57:41.402Z,6.23
